DLH830 EDDF-EKCH
Flight info
| Callsign | DLH830 |
|---|---|
| Flight time | 1h 5m |
| Altitude | 39000 |
| Route | MARUN3W/25C MARUN Y150 TOLGI DCT SAS DCT MAKEL N851 GESKA Z711 MONAK |
| Aircraft | A20N/M-SDE2E3FGHIRWXY/LB1 |
Departure
| Time | 2026-05-06 15:08 |
|---|---|
| Airport | Frankfurt Main Airport (EDDF) |
Arrival
| Time | 2026-05-06 16:14 |
|---|---|
| Airport | Copenhagen Kastrup Airport (EKCH) |
| Time | Latitude | Longitude | Altitude | Speed | Heading |
|---|---|---|---|---|---|
| 2026-05-06 14:21 | 50.03891 | 8.54887 | 354 ft | 0 kts | 160° |
| 2026-05-06 15:00 | 50.03890 | 8.54888 | 353 ft | 0 kts | 160° |
| 2026-05-06 15:00 | 50.03882 | 8.54892 | 353 ft | 1 kts | 160° |
| 2026-05-06 15:00 | 50.03877 | 8.54895 | 353 ft | 2 kts | 160° |
| 2026-05-06 15:00 | 50.03847 | 8.54912 | 353 ft | 5 kts | 160° |
| 2026-05-06 15:01 | 50.03817 | 8.54952 | 353 ft | 6 kts | 101° |
| 2026-05-06 15:01 | 50.03830 | 8.55030 | 353 ft | 8 kts | 70° |
| 2026-05-06 15:01 | 50.03856 | 8.55133 | 353 ft | 13 kts | 70° |
| 2026-05-06 15:01 | 50.03899 | 8.55315 | 353 ft | 21 kts | 70° |
| 2026-05-06 15:02 | 50.03950 | 8.55529 | 353 ft | 20 kts | 70° |
| 2026-05-06 15:02 | 50.04001 | 8.55741 | 353 ft | 20 kts | 70° |
| 2026-05-06 15:02 | 50.04051 | 8.55950 | 353 ft | 20 kts | 70° |
| 2026-05-06 15:02 | 50.04101 | 8.56157 | 353 ft | 20 kts | 70° |
| 2026-05-06 15:03 | 50.04150 | 8.56364 | 353 ft | 20 kts | 70° |
| 2026-05-06 15:03 | 50.04201 | 8.56576 | 353 ft | 21 kts | 70° |
| 2026-05-06 15:03 | 50.04256 | 8.56808 | 353 ft | 23 kts | 70° |
| 2026-05-06 15:03 | 50.04311 | 8.57037 | 353 ft | 23 kts | 70° |
| 2026-05-06 15:04 | 50.04376 | 8.57307 | 353 ft | 27 kts | 70° |
| 2026-05-06 15:04 | 50.04440 | 8.57575 | 353 ft | 26 kts | 70° |
| 2026-05-06 15:04 | 50.04503 | 8.57838 | 353 ft | 25 kts | 70° |
| 2026-05-06 15:04 | 50.04563 | 8.58091 | 353 ft | 24 kts | 70° |
| 2026-05-06 15:05 | 50.04622 | 8.58337 | 353 ft | 23 kts | 70° |
| 2026-05-06 15:05 | 50.04656 | 8.58525 | 353 ft | 14 kts | 105° |
| 2026-05-06 15:05 | 50.04571 | 8.58604 | 353 ft | 15 kts | 161° |
| 2026-05-06 15:05 | 50.04491 | 8.58597 | 353 ft | 9 kts | 239° |
| 2026-05-06 15:06 | 50.04487 | 8.58581 | 353 ft | 0 kts | 253° |
| 2026-05-06 15:06 | 50.04487 | 8.58580 | 353 ft | 0 kts | 253° |
| 2026-05-06 15:07 | 50.04486 | 8.58574 | 353 ft | 1 kts | 253° |
| 2026-05-06 15:07 | 50.04462 | 8.58470 | 353 ft | 37 kts | 249° |
| 2026-05-06 15:08 | 50.04278 | 8.57698 | 353 ft | 112 kts | 250° |
| 2026-05-06 15:08 | 50.03928 | 8.56239 | 446 ft | 163 kts | 250° |
| 2026-05-06 15:08 | 50.03525 | 8.54581 | 1136 ft | 165 kts | 251° |
| 2026-05-06 15:08 | 50.03128 | 8.52958 | 1952 ft | 164 kts | 252° |
| 2026-05-06 15:09 | 50.02716 | 8.51275 | 2643 ft | 172 kts | 252° |
| 2026-05-06 15:09 | 50.02123 | 8.49657 | 3318 ft | 182 kts | 232° |
| 2026-05-06 15:09 | 50.01160 | 8.48354 | 4062 ft | 188 kts | 215° |
| 2026-05-06 15:09 | 49.99980 | 8.47569 | 4837 ft | 191 kts | 198° |
| 2026-05-06 15:10 | 49.98624 | 8.47253 | 5436 ft | 208 kts | 188° |
| 2026-05-06 15:10 | 49.97110 | 8.47041 | 5940 ft | 229 kts | 188° |
| 2026-05-06 15:10 | 49.95504 | 8.46849 | 6682 ft | 239 kts | 189° |
| 2026-05-06 15:10 | 49.93918 | 8.46304 | 7678 ft | 234 kts | 201° |
| 2026-05-06 15:11 | 49.92427 | 8.45451 | 8709 ft | 228 kts | 206° |
| 2026-05-06 15:11 | 49.91049 | 8.44290 | 9557 ft | 228 kts | 222° |
| 2026-05-06 15:11 | 49.90061 | 8.42428 | 10330 ft | 230 kts | 245° |
| 2026-05-06 15:11 | 49.89854 | 8.39897 | 11075 ft | 238 kts | 283° |
| 2026-05-06 15:12 | 49.90608 | 8.37543 | 11807 ft | 246 kts | 307° |
| 2026-05-06 15:12 | 49.91887 | 8.35762 | 12429 ft | 254 kts | 328° |
| 2026-05-06 15:12 | 49.93554 | 8.34662 | 13030 ft | 266 kts | 337° |
| 2026-05-06 15:12 | 49.95344 | 8.33668 | 13468 ft | 283 kts | 337° |
| 2026-05-06 15:13 | 49.97233 | 8.32560 | 13891 ft | 300 kts | 336° |
| 2026-05-06 15:13 | 49.99180 | 8.31348 | 14531 ft | 308 kts | 335° |
| 2026-05-06 15:13 | 50.01178 | 8.30066 | 15324 ft | 310 kts | 335° |
| 2026-05-06 15:13 | 50.03159 | 8.28815 | 16064 ft | 314 kts | 340° |
| 2026-05-06 15:14 | 50.05335 | 8.28352 | 16736 ft | 322 kts | 5° |
| 2026-05-06 15:14 | 50.07468 | 8.29373 | 17407 ft | 328 kts | 28° |
| 2026-05-06 15:14 | 50.09434 | 8.31200 | 18126 ft | 331 kts | 31° |
| 2026-05-06 15:14 | 50.11412 | 8.33079 | 18773 ft | 336 kts | 31° |
| 2026-05-06 15:15 | 50.13407 | 8.34965 | 19433 ft | 340 kts | 31° |
| 2026-05-06 15:15 | 50.15435 | 8.36873 | 20098 ft | 344 kts | 30° |
| 2026-05-06 15:15 | 50.17499 | 8.38807 | 20764 ft | 348 kts | 30° |
| 2026-05-06 15:15 | 50.19559 | 8.40734 | 21440 ft | 352 kts | 30° |
| 2026-05-06 15:16 | 50.21655 | 8.42693 | 22130 ft | 355 kts | 30° |
| 2026-05-06 15:16 | 50.23788 | 8.44688 | 22766 ft | 359 kts | 30° |
| 2026-05-06 15:16 | 50.25929 | 8.46692 | 23384 ft | 363 kts | 30° |
| 2026-05-06 15:16 | 50.28102 | 8.48727 | 23993 ft | 367 kts | 30° |
| 2026-05-06 15:17 | 50.30313 | 8.50799 | 24562 ft | 371 kts | 30° |
| 2026-05-06 15:17 | 50.32511 | 8.52859 | 25129 ft | 375 kts | 30° |
| 2026-05-06 15:17 | 50.34761 | 8.54972 | 25684 ft | 379 kts | 31° |
| 2026-05-06 15:17 | 50.37032 | 8.57109 | 26200 ft | 384 kts | 31° |
| 2026-05-06 15:18 | 50.39324 | 8.59267 | 26680 ft | 389 kts | 31° |
| 2026-05-06 15:18 | 50.41656 | 8.61467 | 27164 ft | 393 kts | 31° |
| 2026-05-06 15:18 | 50.44005 | 8.63685 | 27652 ft | 397 kts | 30° |
| 2026-05-06 15:18 | 50.46379 | 8.65932 | 28110 ft | 400 kts | 31° |
| 2026-05-06 15:19 | 50.48750 | 8.68174 | 28539 ft | 404 kts | 31° |
| 2026-05-06 15:19 | 50.51154 | 8.70450 | 28975 ft | 408 kts | 31° |
| 2026-05-06 15:19 | 50.53584 | 8.72753 | 29405 ft | 410 kts | 31° |
| 2026-05-06 15:19 | 50.56052 | 8.75096 | 29793 ft | 414 kts | 31° |
| 2026-05-06 15:20 | 50.58530 | 8.77451 | 30159 ft | 418 kts | 31° |
| 2026-05-06 15:20 | 50.61028 | 8.79830 | 30483 ft | 422 kts | 31° |
| 2026-05-06 15:20 | 50.63516 | 8.82203 | 30787 ft | 426 kts | 31° |
| 2026-05-06 15:20 | 50.66083 | 8.84652 | 31126 ft | 429 kts | 31° |
| 2026-05-06 15:21 | 50.68626 | 8.87082 | 31442 ft | 431 kts | 31° |
| 2026-05-06 15:21 | 50.71201 | 8.89548 | 31723 ft | 434 kts | 31° |
| 2026-05-06 15:21 | 50.73775 | 8.92014 | 32007 ft | 436 kts | 30° |
| 2026-05-06 15:21 | 50.76402 | 8.94536 | 32305 ft | 438 kts | 30° |
| 2026-05-06 15:22 | 50.79015 | 8.97044 | 32591 ft | 440 kts | 30° |
| 2026-05-06 15:22 | 50.81621 | 8.99548 | 32865 ft | 440 kts | 30° |
| 2026-05-06 15:22 | 50.84220 | 9.02050 | 33122 ft | 441 kts | 30° |
| 2026-05-06 15:22 | 50.86839 | 9.04577 | 33354 ft | 442 kts | 30° |
| 2026-05-06 15:23 | 50.89490 | 9.07135 | 33584 ft | 444 kts | 30° |
| 2026-05-06 15:23 | 50.92125 | 9.09681 | 33827 ft | 445 kts | 30° |
| 2026-05-06 15:23 | 50.94767 | 9.12239 | 34057 ft | 445 kts | 30° |
| 2026-05-06 15:23 | 50.97401 | 9.14794 | 34255 ft | 446 kts | 30° |
| 2026-05-06 15:24 | 51.00070 | 9.17388 | 34470 ft | 448 kts | 30° |
| 2026-05-06 15:24 | 51.02720 | 9.19968 | 34694 ft | 449 kts | 30° |
| 2026-05-06 15:24 | 51.05409 | 9.22525 | 34893 ft | 450 kts | 28° |
| 2026-05-06 15:24 | 51.08184 | 9.24858 | 35069 ft | 451 kts | 24° |
| 2026-05-06 15:25 | 51.11055 | 9.26923 | 35267 ft | 453 kts | 20° |
| 2026-05-06 15:25 | 51.14040 | 9.28720 | 35449 ft | 453 kts | 17° |
| 2026-05-06 15:25 | 51.17036 | 9.30185 | 35703 ft | 450 kts | 13° |
| 2026-05-06 15:25 | 51.20059 | 9.31356 | 36163 ft | 442 kts | 10° |
| 2026-05-06 15:26 | 51.23040 | 9.32374 | 36479 ft | 439 kts | 9° |
| 2026-05-06 15:26 | 51.29079 | 9.34398 | 36638 ft | 447 kts | 9° |
| 2026-05-06 15:27 | 51.35255 | 9.36529 | 36769 ft | 455 kts | 10° |
| 2026-05-06 15:27 | 51.41531 | 9.38718 | 36773 ft | 465 kts | 10° |
| 2026-05-06 15:28 | 51.47873 | 9.40939 | 36774 ft | 465 kts | 10° |
| 2026-05-06 15:28 | 51.54195 | 9.43158 | 36770 ft | 463 kts | 10° |
| 2026-05-06 15:29 | 51.60511 | 9.45381 | 36764 ft | 462 kts | 10° |
| 2026-05-06 15:29 | 51.66800 | 9.47600 | 36762 ft | 462 kts | 10° |
| 2026-05-06 15:30 | 51.73088 | 9.49824 | 36755 ft | 462 kts | 10° |
| 2026-05-06 15:30 | 51.79330 | 9.52195 | 36756 ft | 463 kts | 14° |
| 2026-05-06 15:31 | 51.85455 | 9.55622 | 36755 ft | 465 kts | 21° |
| 2026-05-06 15:31 | 51.91293 | 9.60124 | 36756 ft | 465 kts | 26° |
| 2026-05-06 15:32 | 52.00039 | 9.67455 | 36758 ft | 465 kts | 26° |
| 2026-05-06 15:32 | 52.05829 | 9.72296 | 36763 ft | 465 kts | 26° |
| 2026-05-06 15:33 | 52.11630 | 9.77144 | 36771 ft | 465 kts | 26° |
| 2026-05-06 15:33 | 52.17448 | 9.82018 | 36779 ft | 465 kts | 26° |
| 2026-05-06 15:34 | 52.23236 | 9.86885 | 36786 ft | 465 kts | 26° |
| 2026-05-06 15:34 | 52.29021 | 9.91702 | 36787 ft | 465 kts | 26° |
| 2026-05-06 15:35 | 52.34774 | 9.96432 | 36788 ft | 465 kts | 26° |
| 2026-05-06 15:35 | 52.40554 | 10.01203 | 36791 ft | 464 kts | 26° |
| 2026-05-06 15:36 | 52.46349 | 10.06008 | 36798 ft | 464 kts | 26° |
| 2026-05-06 15:36 | 52.52116 | 10.10811 | 36799 ft | 464 kts | 26° |
| 2026-05-06 15:37 | 52.57866 | 10.15612 | 36797 ft | 464 kts | 25° |
| 2026-05-06 15:37 | 52.63652 | 10.20456 | 36798 ft | 464 kts | 26° |
| 2026-05-06 15:38 | 52.69393 | 10.25276 | 36806 ft | 464 kts | 25° |
| 2026-05-06 15:38 | 52.75158 | 10.30120 | 36810 ft | 464 kts | 25° |
| 2026-05-06 15:39 | 52.80886 | 10.34943 | 36813 ft | 464 kts | 25° |
| 2026-05-06 15:39 | 52.86633 | 10.39800 | 36811 ft | 464 kts | 26° |
| 2026-05-06 15:40 | 52.92385 | 10.44717 | 36816 ft | 464 kts | 26° |
| 2026-05-06 15:40 | 52.98143 | 10.49649 | 36819 ft | 463 kts | 26° |
| 2026-05-06 15:41 | 53.03882 | 10.54568 | 36822 ft | 464 kts | 26° |
| 2026-05-06 15:41 | 53.09635 | 10.59505 | 36825 ft | 464 kts | 26° |
| 2026-05-06 15:42 | 53.15437 | 10.64498 | 36830 ft | 464 kts | 26° |
| 2026-05-06 15:42 | 53.21218 | 10.69486 | 36828 ft | 464 kts | 27° |
| 2026-05-06 15:43 | 53.26951 | 10.74447 | 36817 ft | 464 kts | 27° |
| 2026-05-06 15:43 | 53.32706 | 10.79444 | 36829 ft | 464 kts | 27° |
| 2026-05-06 15:44 | 53.38441 | 10.84440 | 36829 ft | 464 kts | 27° |
| 2026-05-06 15:44 | 53.44168 | 10.89441 | 36834 ft | 464 kts | 27° |
| 2026-05-06 15:45 | 53.49923 | 10.94483 | 36554 ft | 463 kts | 27° |
| 2026-05-06 15:45 | 53.52765 | 10.96978 | 35910 ft | 468 kts | 27° |
| 2026-05-06 15:45 | 53.55660 | 10.99521 | 35321 ft | 470 kts | 27° |
| 2026-05-06 15:46 | 53.58540 | 11.02057 | 34895 ft | 467 kts | 27° |
| 2026-05-06 15:46 | 53.61400 | 11.04581 | 34431 ft | 463 kts | 27° |
| 2026-05-06 15:46 | 53.64262 | 11.07110 | 34022 ft | 458 kts | 28° |
| 2026-05-06 15:46 | 53.67046 | 11.09573 | 33731 ft | 449 kts | 28° |
| 2026-05-06 15:47 | 53.69779 | 11.11995 | 33501 ft | 439 kts | 28° |
| 2026-05-06 15:47 | 53.72449 | 11.14366 | 33286 ft | 430 kts | 28° |
| 2026-05-06 15:47 | 53.75072 | 11.16697 | 33040 ft | 425 kts | 28° |
| 2026-05-06 15:47 | 53.77703 | 11.19039 | 32872 ft | 422 kts | 28° |
| 2026-05-06 15:48 | 53.82927 | 11.23703 | 32877 ft | 434 kts | 28° |
| 2026-05-06 15:48 | 53.88391 | 11.28597 | 32878 ft | 452 kts | 28° |
| 2026-05-06 15:49 | 53.93978 | 11.33611 | 32885 ft | 456 kts | 28° |
| 2026-05-06 15:49 | 53.99550 | 11.38626 | 32562 ft | 451 kts | 28° |
| 2026-05-06 15:50 | 54.02319 | 11.41122 | 31855 ft | 451 kts | 29° |
| 2026-05-06 15:50 | 54.05069 | 11.43605 | 31136 ft | 452 kts | 29° |
| 2026-05-06 15:50 | 54.07865 | 11.46134 | 30597 ft | 455 kts | 29° |
| 2026-05-06 15:50 | 54.10624 | 11.48641 | 30089 ft | 457 kts | 29° |
| 2026-05-06 15:51 | 54.12528 | 11.50372 | 29741 ft | 458 kts | 28° |
| 2026-05-06 15:51 | 54.15329 | 11.52922 | 29225 ft | 460 kts | 28° |
| 2026-05-06 15:51 | 54.18146 | 11.55487 | 28714 ft | 461 kts | 28° |
| 2026-05-06 15:51 | 54.20960 | 11.58054 | 28208 ft | 462 kts | 28° |
| 2026-05-06 15:52 | 54.23818 | 11.60663 | 27680 ft | 464 kts | 28° |
| 2026-05-06 15:52 | 54.26638 | 11.63242 | 27168 ft | 465 kts | 27° |
| 2026-05-06 15:52 | 54.29532 | 11.65892 | 26633 ft | 467 kts | 28° |
| 2026-05-06 15:52 | 54.32425 | 11.68545 | 26108 ft | 468 kts | 28° |
| 2026-05-06 15:53 | 54.35289 | 11.71175 | 25600 ft | 468 kts | 28° |
| 2026-05-06 15:53 | 54.38147 | 11.73803 | 25093 ft | 469 kts | 27° |
| 2026-05-06 15:53 | 54.41034 | 11.76464 | 24581 ft | 470 kts | 27° |
| 2026-05-06 15:53 | 54.43902 | 11.79111 | 24063 ft | 471 kts | 27° |
| 2026-05-06 15:54 | 54.46780 | 11.81902 | 23561 ft | 472 kts | 29° |
| 2026-05-06 15:54 | 54.49605 | 11.84770 | 23068 ft | 473 kts | 30° |
| 2026-05-06 15:54 | 54.52435 | 11.87677 | 22557 ft | 474 kts | 30° |
| 2026-05-06 15:54 | 54.55242 | 11.90568 | 22033 ft | 475 kts | 30° |
| 2026-05-06 15:55 | 54.58086 | 11.93499 | 21505 ft | 476 kts | 30° |
| 2026-05-06 15:55 | 54.60910 | 11.96409 | 20980 ft | 477 kts | 30° |
| 2026-05-06 15:55 | 54.63752 | 11.99339 | 20446 ft | 473 kts | 30° |
| 2026-05-06 15:55 | 54.66538 | 12.02219 | 19861 ft | 462 kts | 30° |
| 2026-05-06 15:56 | 54.69246 | 12.05021 | 19325 ft | 451 kts | 30° |
| 2026-05-06 15:56 | 54.71921 | 12.07790 | 18858 ft | 434 kts | 30° |
| 2026-05-06 15:56 | 54.74433 | 12.10396 | 18441 ft | 416 kts | 30° |
| 2026-05-06 15:56 | 54.76853 | 12.12908 | 18009 ft | 399 kts | 30° |
| 2026-05-06 15:57 | 54.79199 | 12.15344 | 17547 ft | 391 kts | 30° |
| 2026-05-06 15:57 | 54.81510 | 12.17747 | 17112 ft | 384 kts | 30° |
| 2026-05-06 15:57 | 54.83765 | 12.20097 | 16708 ft | 377 kts | 30° |
| 2026-05-06 15:57 | 54.86002 | 12.22432 | 16320 ft | 370 kts | 30° |
| 2026-05-06 15:58 | 54.88177 | 12.24706 | 15958 ft | 363 kts | 30° |
| 2026-05-06 15:58 | 54.90309 | 12.26938 | 15634 ft | 355 kts | 29° |
| 2026-05-06 15:58 | 54.92390 | 12.29119 | 15303 ft | 346 kts | 29° |
| 2026-05-06 15:58 | 54.94433 | 12.31271 | 14726 ft | 336 kts | 31° |
| 2026-05-06 15:59 | 54.96323 | 12.33433 | 14350 ft | 320 kts | 32° |
| 2026-05-06 15:59 | 54.98132 | 12.35559 | 14027 ft | 314 kts | 32° |
| 2026-05-06 15:59 | 54.99938 | 12.37688 | 13685 ft | 312 kts | 32° |
| 2026-05-06 15:59 | 55.01730 | 12.39789 | 13330 ft | 310 kts | 32° |
| 2026-05-06 16:00 | 55.03509 | 12.41865 | 12970 ft | 308 kts | 32° |
| 2026-05-06 16:00 | 55.05288 | 12.43939 | 12615 ft | 306 kts | 32° |
| 2026-05-06 16:00 | 55.07045 | 12.45992 | 12261 ft | 304 kts | 32° |
| 2026-05-06 16:00 | 55.08793 | 12.48035 | 11899 ft | 302 kts | 32° |
| 2026-05-06 16:01 | 55.10538 | 12.50079 | 11534 ft | 300 kts | 32° |
| 2026-05-06 16:01 | 55.12291 | 12.52134 | 11174 ft | 298 kts | 32° |
| 2026-05-06 16:01 | 55.13985 | 12.54123 | 10895 ft | 293 kts | 32° |
| 2026-05-06 16:01 | 55.15654 | 12.56084 | 10660 ft | 286 kts | 32° |
| 2026-05-06 16:02 | 55.17282 | 12.58000 | 10314 ft | 283 kts | 32° |
| 2026-05-06 16:02 | 55.18921 | 12.59930 | 9955 ft | 281 kts | 32° |
| 2026-05-06 16:02 | 55.20524 | 12.61819 | 9607 ft | 278 kts | 33° |
| 2026-05-06 16:02 | 55.22092 | 12.63669 | 9218 ft | 274 kts | 33° |
| 2026-05-06 16:03 | 55.23709 | 12.65459 | 8713 ft | 272 kts | 30° |
| 2026-05-06 16:03 | 55.25370 | 12.67085 | 8234 ft | 269 kts | 29° |
| 2026-05-06 16:03 | 55.26977 | 12.68631 | 7782 ft | 266 kts | 29° |
| 2026-05-06 16:03 | 55.28589 | 12.70181 | 7358 ft | 264 kts | 29° |
| 2026-05-06 16:04 | 55.30185 | 12.71721 | 7011 ft | 260 kts | 29° |
| 2026-05-06 16:04 | 55.31766 | 12.73249 | 6757 ft | 259 kts | 29° |
| 2026-05-06 16:04 | 55.33355 | 12.74676 | 6492 ft | 258 kts | 20° |
| 2026-05-06 16:04 | 55.35133 | 12.74921 | 6225 ft | 260 kts | 350° |
| 2026-05-06 16:05 | 55.36768 | 12.73597 | 5961 ft | 265 kts | 322° |
| 2026-05-06 16:05 | 55.37993 | 12.71173 | 5712 ft | 267 kts | 310° |
| 2026-05-06 16:05 | 55.39090 | 12.68676 | 5467 ft | 267 kts | 310° |
| 2026-05-06 16:05 | 55.40224 | 12.66103 | 5190 ft | 267 kts | 310° |
| 2026-05-06 16:06 | 55.41360 | 12.63553 | 4850 ft | 266 kts | 311° |
| 2026-05-06 16:06 | 55.42408 | 12.60872 | 4501 ft | 269 kts | 295° |
| 2026-05-06 16:06 | 55.42633 | 12.57657 | 4160 ft | 270 kts | 258° |
| 2026-05-06 16:06 | 55.41818 | 12.54716 | 4066 ft | 269 kts | 227° |
| 2026-05-06 16:07 | 55.40442 | 12.52568 | 4001 ft | 262 kts | 218° |
| 2026-05-06 16:07 | 55.39098 | 12.50541 | 3946 ft | 249 kts | 226° |
| 2026-05-06 16:07 | 55.38222 | 12.47895 | 3912 ft | 252 kts | 256° |
| 2026-05-06 16:07 | 55.38179 | 12.44892 | 3617 ft | 247 kts | 287° |
| 2026-05-06 16:08 | 55.39006 | 12.42313 | 3356 ft | 238 kts | 320° |
| 2026-05-06 16:08 | 55.40343 | 12.40758 | 3224 ft | 229 kts | 345° |
| 2026-05-06 16:08 | 55.41878 | 12.40490 | 3097 ft | 220 kts | 9° |
| 2026-05-06 16:08 | 55.43370 | 12.40883 | 2965 ft | 211 kts | 14° |
| 2026-05-06 16:09 | 55.44810 | 12.41379 | 2946 ft | 211 kts | 15° |
| 2026-05-06 16:09 | 55.46219 | 12.41883 | 2925 ft | 200 kts | 17° |
| 2026-05-06 16:09 | 55.47461 | 12.42695 | 2921 ft | 190 kts | 33° |
| 2026-05-06 16:09 | 55.48560 | 12.43994 | 2804 ft | 187 kts | 41° |
| 2026-05-06 16:10 | 55.49545 | 12.45371 | 2615 ft | 179 kts | 43° |
| 2026-05-06 16:10 | 55.50483 | 12.46780 | 2345 ft | 175 kts | 45° |
| 2026-05-06 16:10 | 55.51357 | 12.48132 | 2104 ft | 161 kts | 45° |
| 2026-05-06 16:10 | 55.52171 | 12.49399 | 1865 ft | 150 kts | 46° |
| 2026-05-06 16:11 | 55.52913 | 12.50554 | 1661 ft | 140 kts | 46° |
| 2026-05-06 16:11 | 55.53637 | 12.51683 | 1480 ft | 138 kts | 46° |
| 2026-05-06 16:11 | 55.54355 | 12.52801 | 1299 ft | 138 kts | 46° |
| 2026-05-06 16:11 | 55.55083 | 12.53931 | 1123 ft | 138 kts | 46° |
| 2026-05-06 16:12 | 55.55801 | 12.55044 | 944 ft | 138 kts | 46° |
| 2026-05-06 16:12 | 55.56523 | 12.56161 | 758 ft | 137 kts | 46° |
| 2026-05-06 16:12 | 55.57235 | 12.57264 | 571 ft | 137 kts | 46° |
| 2026-05-06 16:12 | 55.57950 | 12.58376 | 400 ft | 137 kts | 46° |
| 2026-05-06 16:13 | 55.58666 | 12.59485 | 209 ft | 136 kts | 46° |
| 2026-05-06 16:13 | 55.59369 | 12.60582 | 41 ft | 135 kts | 46° |
| 2026-05-06 16:13 | 55.60000 | 12.61571 | 22 ft | 99 kts | 39° |
| 2026-05-06 16:13 | 55.60445 | 12.62249 | 26 ft | 74 kts | 40° |
| 2026-05-06 16:14 | 55.60748 | 12.62719 | 21 ft | 48 kts | 41° |
| 2026-05-06 16:14 | 55.60978 | 12.63072 | 18 ft | 39 kts | 41° |
| 2026-05-06 16:14 | 55.61137 | 12.63308 | 18 ft | 18 kts | 35° |
| 2026-05-06 16:14 | 55.61256 | 12.63329 | 19 ft | 17 kts | 357° |
| 2026-05-06 16:15 | 55.61376 | 12.63319 | 21 ft | 13 kts | 11° |
| 2026-05-06 16:15 | 55.61451 | 12.63423 | 22 ft | 14 kts | 41° |
| 2026-05-06 16:15 | 55.61526 | 12.63541 | 23 ft | 14 kts | 41° |
| 2026-05-06 16:15 | 55.61609 | 12.63672 | 23 ft | 17 kts | 42° |
| 2026-05-06 16:16 | 55.61717 | 12.63835 | 23 ft | 23 kts | 41° |
| 2026-05-06 16:16 | 55.61846 | 12.64033 | 24 ft | 24 kts | 40° |
| 2026-05-06 16:16 | 55.61989 | 12.64169 | 26 ft | 23 kts | 26° |
| 2026-05-06 16:16 | 55.62116 | 12.64276 | 26 ft | 13 kts | 25° |
| 2026-05-06 16:17 | 55.62149 | 12.64303 | 25 ft | 0 kts | 25° |
| 2026-05-06 16:18 | 55.62155 | 12.64307 | 25 ft | 2 kts | 25° |
| 2026-05-06 16:18 | 55.62188 | 12.64335 | 25 ft | 8 kts | 26° |
| 2026-05-06 16:18 | 55.62260 | 12.64342 | 25 ft | 12 kts | 315° |
| 2026-05-06 16:18 | 55.62314 | 12.64195 | 25 ft | 16 kts | 303° |
| 2026-05-06 16:19 | 55.62390 | 12.63986 | 27 ft | 22 kts | 303° |
| 2026-05-06 16:19 | 55.62492 | 12.63791 | 26 ft | 22 kts | 338° |
| 2026-05-06 16:19 | 55.62597 | 12.63776 | 26 ft | 8 kts | 15° |
| 2026-05-06 16:19 | 55.62638 | 12.63804 | 26 ft | 7 kts | 31° |
| 2026-05-06 16:20 | 55.62688 | 12.63864 | 26 ft | 9 kts | 34° |
| 2026-05-06 16:20 | 55.62700 | 12.63933 | 26 ft | 8 kts | 123° |
| 2026-05-06 16:20 | 55.62652 | 12.64058 | 26 ft | 15 kts | 124° |
| 2026-05-06 16:20 | 55.62617 | 12.64156 | 26 ft | 6 kts | 122° |
| 2026-05-06 16:21 | 55.62603 | 12.64240 | 26 ft | 8 kts | 72° |
| 2026-05-06 16:21 | 55.62649 | 12.64302 | 26 ft | 9 kts | 21° |
| 2026-05-06 16:21 | 55.62707 | 12.64328 | 26 ft | 8 kts | 337° |
| 2026-05-06 16:21 | 55.62730 | 12.64279 | 26 ft | 0 kts | 301° |